Lamont, IA (50650)

7:41 AM CDT on July 30, 2014 (GMT -0500)
KIASTRAW2 Elev 1220 ft | 42.68 °N, 91.53 °W | Change Station

Current weather conditions updated 3 minutes ago

Clear
Clear
62.1 °F
Feels Like 62.1 °F
N
1.0
Wind Variable Wind from WNW
Gusts 2.0 mph

Today is forecast to be nearly the same temperature as yesterday. Isolated thunderstorms.

Today
High -- | Low -- °F
--% Chance of Precip.
Yesterday
High -- | Low -- °F
Precip. -- in
5:56 AM 8:28 PM
Waxing Crescent, 11% visible
Pressure 30.09 in
Visibility 9.0 miles
Clouds Clear
Dew Point 58 °F
Humidity 85%
Rainfall -999.00 in
Snow Depth Not available.
UV 1 out of 12
Pollen 6.70 out of 12
Air Quality Not available.
Flu Activity Not available.
METAR KOLZ 301215Z AUTO 31004KT 9SM CLR 14/13 A3009 RMK AO2

More Conditions Fewer Conditions

Pressure 30.09 in
Visibility 9.0 miles
Clouds Clear
Dew Point 58 °F
Humidity 85%
Rainfall -999.00 in
Snow Depth Not available.
UV 1 out of 12
Pollen 6.70 out of 12
Air Quality Not available.
Flu Activity Not available.
METAR KOLZ 301215Z AUTO 31004KT 9SM CLR 14/13 A3009 RMK AO2

More Conditions Fewer Conditions

10-Day Weather Forecast

Almanac

Astronomy

Jul. 30, 2014 Rise Set
Actual Time 5:56 AM CDT 8:28 PM CDT
Civil Twilight 5:24 AM CDT 9:00 PM CDT
Nautical Twilight 4:44 AM CDT 9:40 PM CDT
Astronomical Twilight 3:58 AM CDT 10:26 PM CDT
Moon 9:34 AM CDT 10:05 PM CDT
Length of Visible Light 15h 36m
Length of Day
14h 32m
Tomorrow will be 2m 9s shorter.
Waxing Crescent, 11% of the Moon is Illuminated
Today
Waxing Crescent
Aug 3
First Quarter
Aug 10
Full
Aug 17
Last Quarter
Aug 25
New

Today's Extremes

State Highs State Lows

Community

WunderPhotos

Upload Photos

1,739,058 photos uploaded!

Nearby

Snow Depth

Station Depth Elevation
No new snow has been reported.

Earthquake Activity

City Distance Mag. Time & Date
No recent earthquake activity has been reported nearby.
Minimum magnitude displayed is 2.5.

Coastal Water Temperatures

Place Temperature
No Stations Reporting

Nearby Weather Stations

Station Location Temp. Dew Point Humidity Wind Precip. Elev Updated Type
Strawberry Point, IA 62.1 °F 58 °F 85% WNW  at  1.0 mph 0.00 in / hr 1220 ft 7:38 AM CDT Normal
Northridge Addition, Independence, IA 58.2 °F 57 °F 95% North  at  3.1 mph 0.00 in / hr 929 ft 7:41 AM CDT Rapid Fire
Maplewood Dr, Oelwein, IA 58.1 °F 55 °F 89% NNW  at  0.7 mph 0.00 in / hr 1135 ft 7:41 AM CDT Rapid Fire
Terrace Drive SE, Independence, IA 59.5 °F 56 °F 88% NW  at  0.0 mph 0.00 in / hr 940 ft 7:41 AM CDT Rapid Fire
Rural Northern Linn County, Coggon, IA 58.4 °F - - NNW  at  5.0 mph - / hr 909 ft 7:37 AM CDT Normal

Show More Stations Show Fewer Stations